Latest Weather Observations for Coonabarabran Airport

IDN60801

Issued at 3:32 pm EST Sunday 30 August 2015 (issued every 30 minutes, with the page automatically refreshed every 10 minutes)

About weather observations | Map of weather stations | Latest weather observations for NSW | Other Formats
Station Details ID: 064017 Name: COONABARABRAN AIRPORT AWS Lat: -31.33 Lon: 149.27 Height: 645.0 m
Data from the previous 72 hours. | See also: Recent months at Coonabarabran Airport
Date/Time
EST
Temp
°C
App
Temp
°C
Dew
Point
Rel
Hum
%
Delta-T
°C
Wind Press
QNH
hPa
Press
MSL
hPa
Rain
since 9 am
mm
Dir
 
Spd
km/h
Gust
km/h
Spd
kts
Gust
kts
30/03:30pm 13.0 7.9 2.8 50 4.7 SW 19 26 10 14 1017.7 1017.3 0.0
30/03:00pm 13.2 8.1 3.0 50 4.7 SSW 19 28 10 15 1017.8 1017.4 0.0
30/02:30pm 13.1 8.3 2.4 48 4.9 SW 17 24 9 13 1017.9 1017.5 0.0
30/02:00pm 12.9 8.0 1.9 47 4.9 SW 17 24 9 13 1018.0 1017.6 0.0
30/01:30pm 12.8 7.6 2.4 49 4.7 SSW 19 24 10 13 1018.2 1017.9 0.0
30/01:00pm 12.1 6.8 -0.4 42 5.3 SSW 17 24 9 13 1018.6 1018.3 0.0
30/12:30pm 12.0 6.6 1.1 47 4.8 SSW 19 26 10 14 1019.0 1018.7 0.0
30/12:00pm 11.9 6.9 1.5 49 4.6 SW 17 20 9 11 1019.4 1019.0 0.0
30/11:30am 11.2 5.8 1.5 51 4.2 SSW 19 26 10 14 1019.8 1019.5 0.0
30/11:00am 10.2 5.2 1.3 54 3.8 SW 17 22 9 12 1020.2 1019.9 0.0
30/10:30am 10.0 5.7 3.3 63 3.0 SSW 15 20 8 11 1020.4 1020.1 0.0
30/10:00am 8.7 3.3 1.1 59 3.2 SW 19 26 10 14 1020.4 1020.1 0.0
30/09:30am 7.5 2.0 1.8 67 2.4 SSW 20 30 11 16 1020.4 1020.1 0.0
30/09:00am 6.4 0.5 1.7 72 2.0 SSW 22 28 12 15 1020.4 1020.1 0.0
30/08:30am 5.6 0.1 1.9 77 1.6 SSW 20 30 11 16 1020.2 1019.9 0.0
30/08:00am 4.7 -0.8 1.6 80 1.3 SSW 20 26 11 14 1020.1 1019.8 0.0
30/07:30am 3.7 -1.7 1.1 83 1.0 SSW 19 26 10 14 1019.9 1019.6 0.0
30/07:00am 2.9 -2.2 0.5 84 0.9 SSW 17 20 9 11 1019.7 1019.4 0.0
30/06:30am 2.5 -2.7 0.2 85 0.9 SSW 17 22 9 12 1019.4 1019.0 0.0
30/06:00am 2.3 -2.9 0.0 85 0.9 SSW 17 20 9 11 1019.3 1018.9 0.0
30/05:30am 2.4 -2.8 0.0 84 0.9 SSW 17 22 9 12 1019.3 1018.9 0.0
30/05:00am 2.7 -2.8 0.4 85 0.9 SSW 19 22 10 12 1019.5 1019.2 0.0
30/04:30am 2.7 -2.4 0.6 86 0.8 SSW 17 22 9 12 1019.6 1019.3 0.0
30/04:00am 2.8 -2.3 0.9 87 0.8 SSW 17 20 9 11 1019.7 1019.4 0.0
30/03:30am 3.1 -2.0 1.0 86 0.8 SSW 17 22 9 12 1019.7 1019.4 0.0
30/03:00am 3.4 -1.6 1.1 85 0.9 SSW 17 20 9 11 1020.1 1019.8 0.0
30/02:30am 3.9 -1.1 1.4 84 1.0 SSW 17 20 9 11 1020.4 1020.1 0.0
30/02:00am 4.2 -0.8 1.4 82 1.1 SSW 17 22 9 12 1020.8 1020.5 0.0
30/01:30am 4.7 -0.2 2.1 83 1.1 SSW 17 24 9 13 1021.1 1020.8 0.0
30/01:00am 5.1 0.3 2.5 83 1.1 SSW 17 26 9 14 1021.4 1021.1 0.0
30/12:30am 5.2 0.4 2.4 82 1.2 SSW 17 20 9 11 1021.5 1021.2 0.0
30/12:00am 5.6 0.8 2.6 81 1.3 SSW 17 20 9 11 1021.7 1021.4 0.0
 
Date/Time
EST
Temp
°C
App
Temp
°C
Dew
Point
Rel
Hum
%
Delta-T
°C
Wind Press
QNH
hPa
Press
MSL
hPa
Rain
since 9 am
mm
Dir
 
Spd
km/h
Gust
km/h
Spd
kts
Gust
kts
29/11:30pm 6.2 1.4 2.5 77 1.6 SSW 17 24 9 13 1021.8 1021.5 0.0
29/11:00pm 6.3 1.5 2.4 76 1.7 SW 17 22 9 12 1022.0 1021.7 0.0
29/10:30pm 6.6 1.8 2.7 76 1.7 SW 17 20 9 11 1022.1 1021.9 0.0
29/10:00pm 6.8 2.4 2.9 76 1.7 WSW 15 20 8 11 1022.2 1022.0 0.0
29/09:30pm 7.1 2.4 3.0 75 1.8 WSW 17 22 9 12 1022.3 1022.1 0.0
29/09:00pm 7.1 2.8 3.2 76 1.7 WSW 15 19 8 10 1022.2 1022.0 0.0
29/08:30pm 7.2 3.3 3.3 76 1.7 W 13 19 7 10 1022.3 1022.1 0.0
29/08:00pm 7.1 3.6 3.3 77 1.7 W 11 17 6 9 1022.3 1022.1 0.0
29/07:30pm 7.6 3.8 3.8 77 1.7 WSW 13 19 7 10 1022.2 1022.0 0.0
29/07:00pm 7.8 4.0 4.0 77 1.7 WSW 13 17 7 9 1022.0 1021.7 0.0
29/06:30pm 8.3 4.5 4.1 75 1.9 WSW 13 17 7 9 1021.7 1021.4 0.0
29/06:00pm 9.2 5.9 4.4 72 2.2 WSW 11 17 6 9 1021.5 1021.2 0.0
29/05:30pm 9.7 6.1 4.9 72 2.2 SW 13 17 7 9 1021.2 1020.9 0.0
29/05:00pm 10.1 6.9 5.3 72 2.3 SW 11 15 6 8 1021.0 1020.7 0.0
29/04:30pm 10.5 6.3 5.5 71 2.4 SW 17 20 9 11 1021.0 1020.7 0.0
29/04:00pm 11.5 7.2 5.2 65 3.0 SW 17 24 9 13 1021.0 1020.7 0.0
29/03:30pm 12.5 7.8 5.0 60 3.6 SW 19 28 10 15 1021.1 1020.8 0.0
29/03:00pm 11.7 6.8 4.2 60 3.5 SW 19 22 10 12 1021.3 1021.0 0.0
29/02:30pm 11.4 6.4 4.4 62 3.3 SW 20 30 11 16 1021.5 1021.2 0.0
29/02:00pm 13.3 8.2 6.2 62 3.5 SW 22 32 12 17 1021.7 1021.4 0.0
29/01:30pm 11.8 7.1 5.0 63 3.2 SW 19 26 10 14 1021.9 1021.6 0.0
29/01:00pm 12.7 8.0 5.1 60 3.6 SSW 19 26 10 14 1022.3 1022.1 0.0
29/12:30pm 13.0 8.1 4.9 58 3.9 SSW 20 35 11 19 1022.6 1022.3 0.0
29/12:00pm 12.5 7.6 4.2 57 3.9 SSW 19 26 10 14 1023.2 1022.9 0.0
29/11:30am 12.0 7.9 4.5 60 3.5 SSW 15 26 8 14 1023.4 1023.2 0.0
29/11:00am 12.8 8.6 5.5 61 3.5 SW 17 26 9 14 1023.8 1023.6 0.0
29/10:30am 11.1 7.4 4.6 64 3.0 SW 13 20 7 11 1024.3 1024.0 0.0
29/10:00am 10.4 7.2 5.2 70 2.4 S 11 15 6 8 1024.3 1024.0 0.0
29/09:30am 9.8 6.6 5.0 72 2.2 SSW 11 17 6 9 1024.4 1024.1 0.0
29/09:00am 9.2 6.3 4.6 73 2.1 SW 9 15 5 8 1024.7 1024.4 0.0
29/08:30am 8.4 6.0 4.4 76 1.8 SSW 6 17 3 9 1024.6 1024.3 0.0
29/08:00am 7.7 5.1 4.3 79 1.5 W 7 17 4 9 1024.4 1024.1 0.0
29/07:30am 6.6 3.7 4.8 88 0.8 SW 9 19 5 10 1023.8 1023.6 0.0
29/07:00am 5.9 4.5 3.7 86 1.0 CALM 0 0 0 0 1023.5 1023.3 0.0
29/06:30am 5.1 3.7 3.6 90 0.7 CALM 0 0 0 0 1023.5 1023.3 0.0
29/06:00am 4.7 2.9 3.5 92 0.5 NW 2 6 1 3 1023.2 1022.9 0.0
29/05:30am 4.6 1.8 2.9 89 0.7 WSW 7 15 4 8 1023.0 1022.7 0.0
29/05:00am 4.7 1.9 2.9 88 0.8 SW 7 15 4 8 1022.9 1022.6 0.0
29/04:30am 5.2 2.4 3.4 88 0.8 SW 7 15 4 8 1022.8 1022.5 0.0
29/04:00am 5.6 2.5 3.4 86 1.0 SSW 9 19 5 10 1022.9 1022.6 0.0
29/03:30am 5.0 1.8 3.2 88 0.8 WSW 9 17 5 9 1023.0 1022.7 0.0
29/03:00am 5.6 2.4 3.3 85 1.0 WSW 9 17 5 9 1023.1 1022.8 0.0
29/02:30am 6.2 3.5 3.9 85 1.0 SW 7 13 4 7 1023.0 1022.7 0.0
29/02:00am 6.0 3.6 4.2 88 0.8 WSW 6 11 3 6 1023.2 1022.9 0.0
29/01:30am 5.8 2.8 4.0 88 0.8 W 9 19 5 10 1023.4 1023.2 0.0
29/01:00am 5.8 2.9 4.4 91 0.6 WNW 9 17 5 9 1023.7 1023.5 0.0
29/12:30am 5.9 3.0 4.5 91 0.6 WNW 9 17 5 9 1023.9 1023.7 0.0
29/12:00am 6.4 3.9 5.0 91 0.6 NW 7 13 4 7 1024.0 1023.8 0.0
 
Date/Time
EST
Temp
°C
App
Temp
°C
Dew
Point
Rel
Hum
%
Delta-T
°C
Wind Press
QNH
hPa
Press
MSL
hPa
Rain
since 9 am
mm
Dir
 
Spd
km/h
Gust
km/h
Spd
kts
Gust
kts
28/11:30pm 6.6 4.2 5.1 90 0.7 SW 7 17 4 9 1023.9 1023.7 0.0
28/11:00pm 7.0 4.7 5.5 90 0.7 SW 7 17 4 9 1024.0 1023.8 0.0
28/10:30pm 7.0 4.7 5.0 87 0.9 SSW 6 13 3 7 1024.4 1024.1 0.0
28/10:00pm 7.5 4.7 5.3 86 1.0 SW 9 17 5 9 1024.5 1024.2 0.0
28/09:30pm 8.1 5.7 5.4 83 1.3 SSW 7 15 4 8 1024.5 1024.2 0.0
28/09:00pm 8.5 5.8 5.6 82 1.4 S 9 17 5 9 1024.4 1024.1 0.0
28/08:30pm 8.8 6.8 6.1 83 1.3 S 6 13 3 7 1024.3 1024.0 0.0
28/08:00pm 8.7 6.4 5.8 82 1.4 SSW 7 17 4 9 1023.9 1023.7 0.0
28/07:30pm 8.9 6.6 5.6 80 1.6 SSW 7 15 4 8 1023.6 1023.4 0.0
28/07:00pm 9.4 6.3 5.6 77 1.8 SW 11 15 6 8 1023.2 1022.9 0.0
28/06:30pm 9.7 6.9 5.1 73 2.2 SW 9 15 5 8 1023.2 1022.9 0.0
28/06:00pm 9.9 5.9 5.1 72 2.2 SW 15 20 8 11 1023.0 1022.7 0.0
28/05:30pm 10.3 6.4 5.5 72 2.3 SW 15 19 8 10 1022.9 1022.6 0.0
28/05:00pm 10.6 6.2 4.7 67 2.7 SW 17 24 9 13 1022.5 1022.2 0.0
28/04:30pm 11.0 6.8 5.5 69 2.6 SW 17 24 9 13 1022.2 1022.0 0.0
28/04:00pm 11.4 6.8 5.5 67 2.8 SW 19 28 10 15 1022.1 1021.9 0.0
28/03:30pm 12.0 7.4 5.4 64 3.2 SW 19 24 10 13 1022.0 1021.7 0.0
28/03:00pm 12.2 7.3 4.9 61 3.5 SW 20 26 11 14 1022.0 1021.7 0.0
28/02:30pm 12.7 7.3 4.7 58 3.8 SW 22 32 12 17 1022.1 1021.9 0.0
28/02:00pm 12.2 7.2 3.7 56 3.9 WSW 19 28 10 15 1022.2 1022.0 0.0
28/01:30pm 12.5 7.3 3.7 55 4.1 SW 20 30 11 16 1022.5 1022.2 0.0
28/01:00pm 13.1 7.4 2.9 50 4.7 WSW 22 32 12 17 1022.7 1022.4 0.0
28/12:30pm 13.1 7.5 3.7 53 4.4 WSW 22 32 12 17 1023.1 1022.8 0.0
28/12:00pm 12.8 6.3 2.4 49 4.7 WSW 26 35 14 19 1023.4 1023.2 0.0
28/11:30am 12.8 7.2 3.2 52 4.4 WSW 22 35 12 19 1023.9 1023.7 0.0
28/11:00am 12.3 6.6 3.0 53 4.2 WSW 22 32 12 17 1024.0 1023.8 0.0
28/10:30am 11.8 6.1 2.8 54 4.1 WSW 22 33 12 18 1024.0 1023.8 0.0
28/10:00am 11.9 7.1 4.4 60 3.5 WSW 19 28 10 15 1024.0 1023.8 0.0
28/09:30am 11.1 6.1 4.8 65 3.0 WSW 20 30 11 16 1024.0 1023.8 0.0
28/09:00am 10.2 5.6 3.7 64 2.9 WSW 17 30 9 16 1024.2 1023.9 0.0
28/08:30am 9.7 5.7 4.9 72 2.2 WSW 15 20 8 11 1024.0 1023.8 0.0
28/08:00am 8.7 4.6 4.3 74 2.0 W 15 17 8 9 1023.6 1023.4 0.0
28/07:30am 7.6 3.8 3.8 77 1.7 W 13 17 7 9 1023.2 1022.9 0.0
28/07:00am 6.4 2.4 3.0 79 1.5 W 13 19 7 10 1023.0 1022.7 0.0
28/06:30am 5.7 1.6 2.5 80 1.4 W 13 19 7 10 1022.8 1022.5 0.0
28/06:00am 6.3 2.3 2.8 78 1.5 WSW 13 20 7 11 1022.5 1022.2 0.0
28/05:30am 6.5 1.8 3.1 79 1.5 WSW 17 20 9 11 1022.0 1021.7 0.0
28/05:00am 7.2 2.0 3.4 77 1.7 SW 20 30 11 16 1021.8 1021.5 0.0
28/04:30am 6.8 2.1 3.2 78 1.6 SW 17 24 9 13 1021.7 1021.4 0.0
28/04:00am 6.9 2.2 3.3 78 1.6 WSW 17 22 9 12 1021.6 1021.3 0.0
28/03:30am 6.5 1.3 3.5 81 1.3 SW 20 26 11 14 1021.5 1021.2 0.0
28/03:00am 7.2 1.4 4.2 81 1.3 SW 24 28 13 15 1021.5 1021.2 0.0
28/02:30am 7.1 2.0 4.1 81 1.3 SW 20 26 11 14 1021.6 1021.3 0.0
28/02:00am 7.1 2.2 3.9 80 1.4 SW 19 24 10 13 1021.8 1021.5 0.0
28/01:30am 7.3 2.2 4.3 81 1.4 SW 20 26 11 14 1022.0 1021.7 0.0
28/01:00am 7.2 2.7 4.2 81 1.3 SW 17 20 9 11 1022.1 1021.9 0.0
28/12:30am 7.6 2.7 4.2 79 1.5 SW 19 26 10 14 1022.3 1022.1 0.0
28/12:00am 8.0 3.0 4.4 78 1.6 SW 20 28 11 15 1022.3 1022.1 0.0
 
Date/Time
EST
Temp
°C
App
Temp
°C
Dew
Point
Rel
Hum
%
Delta-T
°C
Wind Press
QNH
hPa
Press
MSL
hPa
Rain
since 9 am
mm
Dir
 
Spd
km/h
Gust
km/h
Spd
kts
Gust
kts
27/11:30pm 7.9 3.0 4.1 77 1.7 WSW 19 24 10 13 1022.3 1022.1 0.0
27/11:00pm 8.2 3.3 4.0 75 1.9 WSW 19 30 10 16 1022.6 1022.3 0.0
27/10:30pm 8.1 3.5 3.8 74 1.9 WSW 17 22 9 12 1022.7 1022.4 0.0
27/10:00pm 8.5 3.2 3.1 69 2.4 WSW 20 30 11 16 1022.6 1022.3 0.0
27/09:30pm 8.4 2.9 3.8 73 2.1 WSW 22 35 12 19 1022.5 1022.2 0.0
27/09:00pm 8.6 3.2 4.4 75 1.9 WSW 22 30 12 16 1022.3 1022.1 0.0
27/08:30pm 7.7 4.1 5.2 84 1.2 WSW 13 15 7 8 1022.2 1022.0 0.0
27/08:00pm 8.0 4.6 6.0 87 0.9 WSW 13 17 7 9 1022.2 1022.0 0.0
27/07:30pm 8.8 4.2 6.4 85 1.2 SW 20 28 11 15 1022.1 1021.9 0.0
27/07:00pm 9.4 6.4 5.8 78 1.7 NW 11 13 6 7 1021.2 1020.9 0.0
27/06:30pm 9.8 7.2 6.2 78 1.7 NW 9 15 5 8 1020.8 1020.5 0.0
27/06:00pm 10.3 7.7 6.3 76 1.9 NW 9 15 5 8 1020.5 1020.2 0.0
27/05:30pm 11.5 8.0 7.0 74 2.2 NW 15 24 8 13 1020.3 1020.0 0.0
27/05:00pm 11.7 8.2 7.4 75 2.1 NW 15 19 8 10 1019.9 1019.6 0.0
27/04:30pm 12.7 8.6 6.3 65 3.2 NW 17 22 9 12 1019.6 1019.3 0.0
27/04:00pm 12.6 8.2 6.4 66 3.0 NW 19 24 10 13 1019.7 1019.4 0.0

Other Formats:

Comma delimited format used in spreadsheet applications
http://www.bom.gov.au/fwo/IDN60801/IDN60801.95728.axf

JavaScript Object Notation format (JSON) in row-major order
http://www.bom.gov.au/fwo/IDN60801/IDN60801.95728.json